Hlavní strana
METAR-TAF:

METAR-TAF

Letiště :

Rabat, Maroko

zeměpisná šířka: 34-03N, zeměpisná délka: 006-46W, výška: 84 m

Aktuální stav počasí

Zpráva byla vytvořena před 37 minutami, v 02:30 UTC
Jižní vítr 4 kt, proměnlivý mezi jihovýchodním a jihojihozápadním
Teplota 11°C
Vlhkost vzduchu 100%
Tlak 1008 hPa
Viditelnost: 6000 m

METAR: GMME 040230Z 17004KT 140V210 6000 NSC 11/11 Q1008 NOSIG

Čas: 04:07 (03:07 UTC)

Předpověď počasí

Zpráva byla vytvořena před 4 hodinami a 7 minutami, v 23:00 UTC
Předpověď platná od 04 v 00 UTC do 05 v 06 UTC
Východojihovýchodní vítr 3 kt
Viditelnost: 6000 m
Pravděpodobnost 30% :
Dočasný
od 04 v 06 UTC do 04 v 09 UTC
Viditelnost: 4000 m
kouřmo

TAF: GMME 032300Z 0400/0506 12003KT 6000 NSC PROB30 TEMPO 0406/0409 4000 BR

Stav a předpovědi počasí z více než 4 000 letišť (zprávy METAR a TAF).

Červené a žluté tečky na mapě představují dostupné meteorologické stanice.

Když kurzor umístíte na tečku, zobrazí se název stanice.

Pak kliknutím zobrazíte stav a předpověď počasí.

Chcete-li změnit mapu, kliknutím na zelené tlačítko se znaménkem +mapu přiblížíte, kliknutím na zelené tlačítko se znaménkem – mapu oddálíte a kliknutím na zelené šipky přejdete na sousední mapy.


METAR-TAF: